createdAt,value
2023-05-02T00:03:55.109Z,98327.88
2023-05-02T00:08:57.065Z,98326.31
2023-05-02T00:13:58.656Z,98335.41
2023-05-02T00:19:00.227Z,98325.56
2023-05-02T00:24:01.822Z,98319.75
2023-05-02T00:29:03.440Z,98321.06
2023-05-02T00:34:05.093Z,98312.81
2023-05-02T00:39:06.712Z,98308.31
2023-05-02T00:44:08.686Z,98310.63
2023-05-02T00:49:10.381Z,98310.16
2023-05-02T00:54:13.687Z,98308.31
2023-05-02T00:59:16.464Z,98311.94
2023-05-02T01:04:29.173Z,98306.50
2023-05-02T01:10:09.376Z,98303.09
2023-05-02T01:15:16.546Z,98306.75
2023-05-02T01:20:21.728Z,98309.41
2023-05-02T01:26:02.528Z,98312.16
2023-05-02T01:31:06.075Z,98309.75
2023-05-02T01:36:09.009Z,98307.88
2023-05-02T01:41:13.021Z,98305.63
2023-05-02T01:46:15.304Z,98311.84
2023-05-02T01:51:19.142Z,98307.16
2023-05-02T01:56:22.006Z,98301.50
2023-05-02T02:01:27.653Z,98303.44
2023-05-02T02:06:29.419Z,98294.81
2023-05-02T02:11:51.018Z,98298.72
2023-05-02T02:16:56.255Z,98291.41
2023-05-02T02:21:59.348Z,98299.63
2023-05-02T02:27:00.997Z,98294.47
2023-05-02T02:32:02.634Z,98282.06
2023-05-02T02:37:19.194Z,98285.13
2023-05-02T02:42:40.073Z,98287.16
2023-05-02T02:47:43.929Z,98290.09
2023-05-02T02:52:54.507Z,98284.16
2023-05-02T02:58:04.143Z,98289.38
2023-05-02T03:03:08.012Z,98285.50
2023-05-02T03:08:10.052Z,98284.75
2023-05-02T03:13:11.671Z,98282.94
2023-05-02T03:18:13.345Z,98280.63
2023-05-02T03:23:15.458Z,98288.25
2023-05-02T03:28:17.027Z,98293.56
2023-05-02T03:33:18.951Z,98284.72
2023-05-02T03:38:20.647Z,98285.22
2023-05-02T03:43:22.306Z,98292.75
2023-05-02T03:48:24.012Z,98294.47
2023-05-02T03:53:25.652Z,98304.34
2023-05-02T03:58:27.624Z,98309.47
2023-05-02T04:03:30.149Z,98302.34
2023-05-02T04:08:31.863Z,98313.94
2023-05-02T04:13:33.519Z,98309.47
2023-05-02T04:18:35.221Z,98310.13
2023-05-02T04:23:36.861Z,98305.41
2023-05-02T04:28:38.540Z,98317.91
2023-05-02T04:33:40.072Z,98322.31
2023-05-02T04:38:42.294Z,98322.31
2023-05-02T04:43:44.585Z,98333.16
2023-05-02T04:48:46.351Z,98340.09
2023-05-02T04:53:47.987Z,98344.91
2023-05-02T04:58:49.700Z,98339.09
2023-05-02T05:03:51.501Z,98350.34
2023-05-02T05:08:53.214Z,98351.44
2023-05-02T05:13:54.831Z,98372.72
2023-05-02T05:18:56.436Z,98375.78
2023-05-02T05:23:58.025Z,98364.31
2023-05-02T05:28:59.649Z,98363.19
2023-05-02T05:34:02.512Z,98371.13
2023-05-02T05:39:04.480Z,98369.19
2023-05-02T05:44:06.078Z,98390.06
2023-05-02T05:49:07.672Z,98402.31
2023-05-02T05:54:09.284Z,98415.59
2023-05-02T05:59:10.964Z,98404.75
2023-05-02T06:04:12.679Z,98397.47
2023-05-02T06:09:14.370Z,98404.41
2023-05-02T06:14:16.400Z,98407.00
2023-05-02T06:19:18.002Z,98419.13
2023-05-02T06:24:20.973Z,98429.63
2023-05-02T06:29:22.583Z,98439.66
2023-05-02T06:34:24.236Z,98443.75
2023-05-02T06:39:25.824Z,98454.38
2023-05-02T06:44:27.476Z,98467.38
2023-05-02T06:49:29.060Z,98472.88
2023-05-02T06:54:30.671Z,98477.72
2023-05-02T06:59:32.257Z,98475.19
2023-05-02T07:04:33.884Z,98474.16
2023-05-02T07:09:35.664Z,98467.06
2023-05-02T07:14:37.311Z,98472.69
2023-05-02T07:19:38.933Z,98471.75
2023-05-02T07:24:41.881Z,98472.53
2023-05-02T07:29:43.506Z,98475.72
2023-05-02T07:34:45.313Z,98467.69
2023-05-02T07:39:46.950Z,98477.06
2023-05-02T07:44:48.588Z,98480.78
2023-05-02T07:49:54.352Z,98489.56
2023-05-02T07:54:56.421Z,98502.47
2023-05-02T07:59:58.131Z,98503.34
2023-05-02T08:04:59.848Z,98481.34
2023-05-02T08:10:02.071Z,98481.31
2023-05-02T08:15:09.197Z,98493.56
2023-05-02T08:20:11.154Z,98505.53
2023-05-02T08:25:12.726Z,98520.53
2023-05-02T08:30:14.634Z,98525.59
2023-05-02T08:35:16.419Z,98517.19
2023-05-02T08:40:27.089Z,98506.38
2023-05-02T08:45:39.236Z,98513.78
2023-05-02T08:50:43.585Z,98521.63
2023-05-02T08:55:46.260Z,98517.63
2023-05-02T09:00:49.182Z,98517.78
2023-05-02T09:06:01.955Z,98506.13
2023-05-02T09:11:04.862Z,98513.41
2023-05-02T09:16:11.677Z,98505.59
2023-05-02T09:21:21.040Z,98493.28
2023-05-02T09:26:29.554Z,98481.75
2023-05-02T09:31:55.094Z,98491.81
2023-05-02T09:36:58.452Z,98494.38
2023-05-02T09:42:00.153Z,98508.06
2023-05-02T09:47:02.358Z,98517.91
2023-05-02T09:52:14.504Z,98519.25
2023-05-02T09:57:16.356Z,98525.66
2023-05-02T10:02:18.237Z,98536.34
2023-05-02T10:07:21.121Z,98534.56
2023-05-02T10:12:26.871Z,98522.66
2023-05-02T10:17:32.207Z,98526.66
2023-05-02T10:22:35.447Z,98526.28
2023-05-02T10:27:37.962Z,98528.66
2023-05-02T10:32:40.425Z,98511.25
2023-05-02T10:37:42.895Z,98522.41
2023-05-02T10:42:48.012Z,98513.56
2023-05-02T10:47:49.715Z,98525.81
2023-05-02T10:52:51.487Z,98530.53
2023-05-02T10:57:59.457Z,98537.44
2023-05-02T11:03:02.265Z,98541.59
2023-05-02T11:08:24.379Z,98536.59
2023-05-02T11:13:51.295Z,98529.09
2023-05-02T11:19:01.811Z,98526.38
2023-05-02T11:24:38.919Z,98518.28
2023-05-02T11:29:53.985Z,98529.47
2023-05-02T11:34:56.136Z,98521.63
2023-05-02T11:40:13.964Z,98520.25
2023-05-02T11:45:15.782Z,98526.59
2023-05-02T11:50:18.482Z,98536.34
2023-05-02T11:55:20.078Z,98537.41
2023-05-02T12:00:27.634Z,98545.88
2023-05-02T12:05:30.410Z,98544.00
2023-05-02T12:10:38.588Z,98542.13
2023-05-02T12:15:40.646Z,98549.97
2023-05-02T12:20:43.124Z,98549.84
2023-05-02T12:25:44.752Z,98553.59
2023-05-02T12:30:49.294Z,98553.03
2023-05-02T12:35:51.311Z,98552.38
2023-05-02T12:40:54.658Z,98558.03
2023-05-02T12:46:12.139Z,98557.19
2023-05-02T12:51:28.665Z,98562.97
2023-05-02T12:56:32.840Z,98565.84
2023-05-02T13:01:35.008Z,98564.16
2023-05-02T13:06:38.465Z,98555.69
2023-05-02T13:11:40.436Z,98562.91
2023-05-02T13:16:42.190Z,98562.44
2023-05-02T13:21:43.854Z,98566.41
2023-05-02T13:26:46.299Z,98563.53
2023-05-02T13:31:47.850Z,98570.72
2023-05-02T13:36:49.471Z,98576.22
2023-05-02T13:41:51.027Z,98576.88
2023-05-02T13:46:52.627Z,98585.88
2023-05-02T13:51:54.260Z,98581.47
2023-05-02T13:56:55.972Z,98582.75
2023-05-02T14:01:57.766Z,98593.03
2023-05-02T14:06:59.445Z,98593.97
2023-05-02T14:12:02.075Z,98599.91
2023-05-02T14:17:04.052Z,98602.91
2023-05-02T14:22:05.631Z,98597.38
2023-05-02T14:27:09.335Z,98602.00
2023-05-02T14:32:10.945Z,98608.31
2023-05-02T14:37:12.568Z,98619.22
2023-05-02T14:42:14.179Z,98615.44
2023-05-02T14:47:15.815Z,98626.53
2023-05-02T14:52:17.447Z,98619.81
2023-05-02T14:57:19.494Z,98626.59
2023-05-02T15:02:21.943Z,98631.59
2023-05-02T15:07:24.008Z,98626.19
2023-05-02T15:12:26.853Z,98625.66
2023-05-02T15:17:28.421Z,98622.66
2023-05-02T15:22:29.971Z,98625.34
2023-05-02T15:27:31.622Z,98623.47
2023-05-02T15:32:33.536Z,98625.53
2023-05-02T15:37:35.513Z,98623.94
2023-05-02T15:42:37.315Z,98633.22
2023-05-02T15:47:39.634Z,98621.38
2023-05-02T15:52:41.594Z,98630.00
2023-05-02T15:57:43.619Z,98619.16
2023-05-02T16:02:45.335Z,98633.66
2023-05-02T16:07:47.119Z,98637.63
2023-05-02T16:12:48.768Z,98633.94
2023-05-02T16:17:50.716Z,98641.09
2023-05-02T16:22:52.403Z,98647.94
2023-05-02T16:27:53.992Z,98653.06
2023-05-02T16:32:55.805Z,98661.38
2023-05-02T16:37:57.526Z,98665.47
2023-05-02T16:42:59.276Z,98672.28
2023-05-02T16:48:00.956Z,98671.31
2023-05-02T16:53:02.850Z,98671.44
2023-05-02T16:58:04.487Z,98679.00
2023-05-02T17:03:06.475Z,98683.69
2023-05-02T17:08:09.205Z,98694.41
2023-05-02T17:13:12.949Z,98689.56
2023-05-02T17:18:14.620Z,98692.34
2023-05-02T17:23:16.368Z,98700.03
2023-05-02T17:28:18.250Z,98706.38
2023-05-02T17:33:21.100Z,98711.91
2023-05-02T17:38:22.980Z,98724.13
2023-05-02T17:43:27.260Z,98730.00
2023-05-02T17:48:29.710Z,98731.97
2023-05-02T17:53:31.526Z,98741.31
2023-05-02T17:58:35.443Z,98743.78
2023-05-02T18:03:39.206Z,98751.53
2023-05-02T18:08:41.600Z,98757.31
2023-05-02T18:13:43.855Z,98758.13
2023-05-02T18:18:45.891Z,98768.06
2023-05-02T18:23:47.684Z,98768.28
2023-05-02T18:28:54.715Z,98768.19
2023-05-02T18:33:56.518Z,98776.38
2023-05-02T18:38:58.642Z,98778.72
2023-05-02T18:44:06.722Z,98789.28
2023-05-02T18:49:09.735Z,98791.34
2023-05-02T18:54:11.965Z,98795.81
2023-05-02T18:59:14.000Z,98798.75
2023-05-02T19:04:17.966Z,98801.56
2023-05-02T19:09:20.897Z,98811.41
2023-05-02T19:14:23.276Z,98818.66
2023-05-02T19:19:25.404Z,98818.97
2023-05-02T19:24:27.959Z,98827.03
2023-05-02T19:29:30.551Z,98827.03
2023-05-02T19:34:33.472Z,98830.38
2023-05-02T19:39:36.183Z,98831.81
2023-05-02T19:44:38.516Z,98831.16
2023-05-02T19:49:40.519Z,98836.66
2023-05-02T19:54:42.673Z,98841.25
2023-05-02T19:59:44.740Z,98850.94
2023-05-02T20:04:47.130Z,98864.84
2023-05-02T20:09:48.865Z,98864.34
2023-05-02T20:14:50.560Z,98864.25
2023-05-02T20:19:52.698Z,98865.88
2023-05-02T20:24:54.613Z,98866.38
2023-05-02T20:29:56.385Z,98864.34
2023-05-02T20:34:58.180Z,98862.56
2023-05-02T20:40:00.360Z,98868.44
2023-05-02T20:45:04.968Z,98880.91
2023-05-02T20:50:09.478Z,98884.94
2023-05-02T20:55:11.331Z,98883.00
2023-05-02T21:00:14.323Z,98885.47
2023-05-02T21:05:15.986Z,98887.84
2023-05-02T21:10:17.739Z,98899.66
2023-05-02T21:15:19.332Z,98899.47
2023-05-02T21:20:21.531Z,98905.94
2023-05-02T21:25:23.641Z,98903.38
2023-05-02T21:30:25.277Z,98908.09
2023-05-02T21:35:28.771Z,98902.03
2023-05-02T21:40:31.932Z,98911.66
2023-05-02T21:45:33.566Z,98902.13
2023-05-02T21:50:35.145Z,98906.97
2023-05-02T21:55:37.739Z,98911.66
2023-05-02T22:00:40.827Z,98909.00
2023-05-02T22:05:42.553Z,98917.63
2023-05-02T22:10:44.342Z,98913.53
2023-05-02T22:15:47.406Z,98918.69
2023-05-02T22:20:49.040Z,98914.66
2023-05-02T22:25:50.757Z,98915.53
2023-05-02T22:30:52.404Z,98917.31
2023-05-02T22:35:54.003Z,98913.53
2023-05-02T22:40:55.591Z,98917.53
2023-05-02T22:45:57.227Z,98915.63
2023-05-02T22:50:58.897Z,98919.44
2023-05-02T22:56:00.639Z,98925.31
2023-05-02T23:01:02.317Z,98922.28
2023-05-02T23:06:04.113Z,98920.88
2023-05-02T23:11:05.939Z,98919.97
2023-05-02T23:16:07.737Z,98931.00
2023-05-02T23:21:16.394Z,98927.41
2023-05-02T23:26:17.988Z,98922.72
2023-05-02T23:31:19.679Z,98921.50
2023-05-02T23:36:21.669Z,98922.63
2023-05-02T23:41:23.525Z,98918.44
2023-05-02T23:46:25.683Z,98913.34
2023-05-02T23:51:28.488Z,98920.34
2023-05-02T23:56:30.101Z,98909.03
